sensor_id;sensor_type;location;lat;lon;timestamp;pressure;altitude;pressure_sealevel;temperature;humidity
58072;BME280;60383;46.626;18.866;2022-09-03T00:02:42;100531.94;;;14.58;80.04
58072;BME280;60383;46.626;18.866;2022-09-03T00:05:34;100533.53;;;14.52;80.19
58072;BME280;60383;46.626;18.866;2022-09-03T00:13:08;100528.84;;;14.53;80.31
58072;BME280;60383;46.626;18.866;2022-09-03T00:15:35;100524.03;;;14.55;80.29
58072;BME280;60383;46.626;18.866;2022-09-03T00:18:25;100528.69;;;14.54;80.58
58072;BME280;60383;46.626;18.866;2022-09-03T00:21:05;100522.13;;;14.56;79.95
58072;BME280;60383;46.626;18.866;2022-09-03T00:23:36;100525.25;;;14.52;80.08
58072;BME280;60383;46.626;18.866;2022-09-03T00:28:44;100515.22;;;14.60;80.25
58072;BME280;60383;46.626;18.866;2022-09-03T00:31:14;100518.22;;;14.50;80.29
58072;BME280;60383;46.626;18.866;2022-09-03T00:33:44;100514.72;;;14.56;80.24
58072;BME280;60383;46.626;18.866;2022-09-03T00:36:16;100525.38;;;14.59;80.52
58072;BME280;60383;46.626;18.866;2022-09-03T00:38:44;100516.59;;;14.56;80.40
58072;BME280;60383;46.626;18.866;2022-09-03T00:46:22;100526.06;;;14.61;80.07
58072;BME280;60383;46.626;18.866;2022-09-03T00:49:27;100522.25;;;14.62;80.18
58072;BME280;60383;46.626;18.866;2022-09-03T00:52:11;100535.41;;;14.52;80.13
58072;BME280;60383;46.626;18.866;2022-09-03T00:59:54;100542.63;;;14.53;80.34
58072;BME280;60383;46.626;18.866;2022-09-03T01:13:49;100539.25;;;14.43;80.70
58072;BME280;60383;46.626;18.866;2022-09-03T01:16:49;100540.63;;;14.38;80.59
58072;BME280;60383;46.626;18.866;2022-09-03T01:25:21;100537.16;;;14.13;81.77
58072;BME280;60383;46.626;18.866;2022-09-03T01:28:31;100535.53;;;14.27;81.38
58072;BME280;60383;46.626;18.866;2022-09-03T01:31:33;100540.00;;;14.28;81.42
58072;BME280;60383;46.626;18.866;2022-09-03T01:34:18;100541.34;;;14.32;81.60
58072;BME280;60383;46.626;18.866;2022-09-03T01:36:54;100546.44;;;14.20;81.32
58072;BME280;60383;46.626;18.866;2022-09-03T01:49:57;100546.22;;;14.30;81.76
58072;BME280;60383;46.626;18.866;2022-09-03T01:58:13;100541.47;;;14.08;81.58
58072;BME280;60383;46.626;18.866;2022-09-03T02:00:43;100549.06;;;13.97;81.33
58072;BME280;60383;46.626;18.866;2022-09-03T02:03:11;100544.44;;;13.98;81.56
58072;BME280;60383;46.626;18.866;2022-09-03T02:05:37;100542.72;;;13.97;81.64
58072;BME280;60383;46.626;18.866;2022-09-03T02:08:07;100546.19;;;13.90;82.18
58072;BME280;60383;46.626;18.866;2022-09-03T02:10:50;100545.16;;;13.83;82.15
58072;BME280;60383;46.626;18.866;2022-09-03T02:13:20;100541.19;;;13.86;82.07
58072;BME280;60383;46.626;18.866;2022-09-03T02:15:49;100553.09;;;13.86;82.07
58072;BME280;60383;46.626;18.866;2022-09-03T02:18:26;100548.75;;;13.84;82.34
58072;BME280;60383;46.626;18.866;2022-09-03T02:20:53;100556.19;;;13.83;82.47
58072;BME280;60383;46.626;18.866;2022-09-03T02:23:19;100543.63;;;13.81;82.14
58072;BME280;60383;46.626;18.866;2022-09-03T02:25:49;100549.13;;;13.81;82.25
58072;BME280;60383;46.626;18.866;2022-09-03T02:28:16;100552.91;;;13.80;82.46
58072;BME280;60383;46.626;18.866;2022-09-03T02:30:42;100557.53;;;13.87;82.50
58072;BME280;60383;46.626;18.866;2022-09-03T02:33:08;100558.22;;;13.89;82.32
58072;BME280;60383;46.626;18.866;2022-09-03T02:35:34;100559.06;;;13.90;82.37
58072;BME280;60383;46.626;18.866;2022-09-03T02:38:16;100553.94;;;13.87;82.61
58072;BME280;60383;46.626;18.866;2022-09-03T02:40:43;100558.94;;;13.83;82.48
58072;BME280;60383;46.626;18.866;2022-09-03T02:46:03;100543.44;;;13.74;82.94
58072;BME280;60383;46.626;18.866;2022-09-03T02:48:29;100548.28;;;13.72;83.22
58072;BME280;60383;46.626;18.866;2022-09-03T02:50:54;100538.81;;;13.74;83.06
58072;BME280;60383;46.626;18.866;2022-09-03T02:53:20;100542.28;;;13.68;83.56
58072;BME280;60383;46.626;18.866;2022-09-03T02:55:45;100541.91;;;13.71;83.42
58072;BME280;60383;46.626;18.866;2022-09-03T02:58:11;100549.13;;;13.72;83.67
58072;BME280;60383;46.626;18.866;2022-09-03T03:00:37;100551.19;;;13.79;84.19
58072;BME280;60383;46.626;18.866;2022-09-03T03:03:03;100555.84;;;13.78;83.97
58072;BME280;60383;46.626;18.866;2022-09-03T03:05:42;100551.38;;;13.77;84.10
58072;BME280;60383;46.626;18.866;2022-09-03T03:08:08;100553.44;;;13.75;83.47
58072;BME280;60383;46.626;18.866;2022-09-03T03:10:34;100555.00;;;13.69;83.99
58072;BME280;60383;46.626;18.866;2022-09-03T03:12:59;100558.25;;;13.73;84.37
58072;BME280;60383;46.626;18.866;2022-09-03T03:15:25;100559.81;;;13.76;84.08
58072;BME280;60383;46.626;18.866;2022-09-03T03:17:55;100569.09;;;13.83;84.00
58072;BME280;60383;46.626;18.866;2022-09-03T03:20:21;100564.09;;;13.78;84.28
58072;BME280;60383;46.626;18.866;2022-09-03T03:22:46;100569.63;;;13.78;83.89
58072;BME280;60383;46.626;18.866;2022-09-03T03:25:12;100567.38;;;13.65;83.92
58072;BME280;60383;46.626;18.866;2022-09-03T03:27:37;100576.84;;;13.54;83.98
58072;BME280;60383;46.626;18.866;2022-09-03T03:30:05;100572.38;;;13.62;83.73
58072;BME280;60383;46.626;18.866;2022-09-03T03:32:34;100584.94;;;13.56;83.71
58072;BME280;60383;46.626;18.866;2022-09-03T03:35:00;100581.31;;;13.64;83.54
58072;BME280;60383;46.626;18.866;2022-09-03T03:37:25;100578.56;;;13.55;83.28
58072;BME280;60383;46.626;18.866;2022-09-03T03:39:51;100588.72;;;13.63;83.29
58072;BME280;60383;46.626;18.866;2022-09-03T03:42:16;100581.84;;;13.67;82.94
58072;BME280;60383;46.626;18.866;2022-09-03T03:45:00;100583.53;;;13.77;82.53
58072;BME280;60383;46.626;18.866;2022-09-03T03:47:27;100588.00;;;13.78;82.01
58072;BME280;60383;46.626;18.866;2022-09-03T03:49:55;100580.63;;;13.86;81.22
58072;BME280;60383;46.626;18.866;2022-09-03T03:52:20;100582.69;;;13.76;81.30
58072;BME280;60383;46.626;18.866;2022-09-03T03:54:46;100583.19;;;13.71;81.50
58072;BME280;60383;46.626;18.866;2022-09-03T03:57:13;100585.75;;;13.73;81.34
58072;BME280;60383;46.626;18.866;2022-09-03T03:59:38;100588.88;;;13.62;81.98
58072;BME280;60383;46.626;18.866;2022-09-03T04:02:04;100585.94;;;13.63;81.74
58072;BME280;60383;46.626;18.866;2022-09-03T04:04:29;100596.81;;;13.65;82.36
58072;BME280;60383;46.626;18.866;2022-09-03T04:06:55;100586.13;;;13.70;81.93
58072;BME280;60383;46.626;18.866;2022-09-03T04:09:20;100585.09;;;13.79;80.76
58072;BME280;60383;46.626;18.866;2022-09-03T04:11:46;100587.84;;;13.71;81.44
58072;BME280;60383;46.626;18.866;2022-09-03T04:14:11;100597.31;;;13.68;81.59
58072;BME280;60383;46.626;18.866;2022-09-03T04:16:37;100597.31;;;13.68;81.82
58072;BME280;60383;46.626;18.866;2022-09-03T04:19:02;100594.72;;;13.67;81.71
58072;BME280;60383;46.626;18.866;2022-09-03T04:21:29;100602.81;;;13.68;81.19
58072;BME280;60383;46.626;18.866;2022-09-03T04:23:56;100601.81;;;13.69;81.85
58072;BME280;60383;46.626;18.866;2022-09-03T04:26:27;100601.75;;;13.78;81.17
58072;BME280;60383;46.626;18.866;2022-09-03T04:28:56;100609.16;;;13.85;80.79
58072;BME280;60383;46.626;18.866;2022-09-03T04:31:22;100607.44;;;13.93;80.51
58072;BME280;60383;46.626;18.866;2022-09-03T04:33:48;100613.06;;;14.08;79.74
58072;BME280;60383;46.626;18.866;2022-09-03T04:36:15;100614.22;;;14.30;79.23
58072;BME280;60383;46.626;18.866;2022-09-03T04:38:43;100610.16;;;14.65;78.90
58072;BME280;60383;46.626;18.866;2022-09-03T04:41:11;100616.94;;;14.86;77.58
58072;BME280;60383;46.626;18.866;2022-09-03T04:43:38;100608.31;;;14.81;77.42
58072;BME280;60383;46.626;18.866;2022-09-03T04:46:06;100606.97;;;14.77;77.76
58072;BME280;60383;46.626;18.866;2022-09-03T04:48:34;100615.63;;;14.97;76.62
58072;BME280;60383;46.626;18.866;2022-09-03T04:51:09;100616.28;;;15.30;75.14
58072;BME280;60383;46.626;18.866;2022-09-03T04:53:38;100621.53;;;15.63;74.49
58072;BME280;60383;46.626;18.866;2022-09-03T04:56:21;100612.63;;;15.76;73.76
58072;BME280;60383;46.626;18.866;2022-09-03T04:58:48;100612.38;;;15.86;73.54
58072;BME280;60383;46.626;18.866;2022-09-03T05:01:18;100615.63;;;15.90;73.88
58072;BME280;60383;46.626;18.866;2022-09-03T05:03:44;100615.16;;;15.86;73.88
58072;BME280;60383;46.626;18.866;2022-09-03T05:06:10;100613.91;;;15.89;73.96
58072;BME280;60383;46.626;18.866;2022-09-03T05:08:36;100610.03;;;15.98;74.21
58072;BME280;60383;46.626;18.866;2022-09-03T05:11:06;100607.34;;;16.05;74.24
58072;BME280;60383;46.626;18.866;2022-09-03T05:13:33;100601.75;;;16.13;74.11
58072;BME280;60383;46.626;18.866;2022-09-03T05:16:04;100604.03;;;16.24;73.98
58072;BME280;60383;46.626;18.866;2022-09-03T05:18:30;100608.22;;;16.35;73.94
58072;BME280;60383;46.626;18.866;2022-09-03T05:21:00;100605.72;;;16.55;73.47
58072;BME280;60383;46.626;18.866;2022-09-03T05:23:27;100603.72;;;16.64;73.12
58072;BME280;60383;46.626;18.866;2022-09-03T05:26:03;100605.22;;;16.67;73.54
58072;BME280;60383;46.626;18.866;2022-09-03T05:28:34;100595.84;;;16.83;73.10
58072;BME280;60383;46.626;18.866;2022-09-03T05:31:20;100608.72;;;16.90;72.90
58072;BME280;60383;46.626;18.866;2022-09-03T05:33:52;100602.91;;;17.00;72.33
58072;BME280;60383;46.626;18.866;2022-09-03T05:36:20;100598.78;;;17.11;71.74
58072;BME280;60383;46.626;18.866;2022-09-03T05:38:47;100596.59;;;16.91;73.12
58072;BME280;60383;46.626;18.866;2022-09-03T05:41:14;100592.31;;;17.04;73.34
58072;BME280;60383;46.626;18.866;2022-09-03T05:43:41;100606.91;;;16.98;73.48
58072;BME280;60383;46.626;18.866;2022-09-03T05:46:12;100609.72;;;17.19;73.54
58072;BME280;60383;46.626;18.866;2022-09-03T05:48:39;100610.34;;;17.21;73.85
58072;BME280;60383;46.626;18.866;2022-09-03T05:51:07;100608.72;;;17.27;74.12
58072;BME280;60383;46.626;18.866;2022-09-03T05:53:35;100603.09;;;17.42;73.12
58072;BME280;60383;46.626;18.866;2022-09-03T05:56:03;100619.78;;;17.49;72.92
58072;BME280;60383;46.626;18.866;2022-09-03T05:58:46;100625.25;;;17.42;73.21
58072;BME280;60383;46.626;18.866;2022-09-03T06:01:17;100621.75;;;17.55;72.92
58072;BME280;60383;46.626;18.866;2022-09-03T06:03:46;100628.59;;;17.59;74.18
58072;BME280;60383;46.626;18.866;2022-09-03T06:06:12;100629.03;;;17.34;75.10
58072;BME280;60383;46.626;18.866;2022-09-03T06:08:39;100627.22;;;17.27;75.77
58072;BME280;60383;46.626;18.866;2022-09-03T06:11:06;100619.91;;;17.40;75.00
58072;BME280;60383;46.626;18.866;2022-09-03T06:13:32;100611.06;;;17.52;74.72
58072;BME280;60383;46.626;18.866;2022-09-03T06:16:00;100613.34;;;17.42;75.63
58072;BME280;60383;46.626;18.866;2022-09-03T06:18:26;100603.84;;;17.29;75.93
58072;BME280;60383;46.626;18.866;2022-09-03T06:23:20;100609.16;;;17.09;76.67
58072;BME280;60383;46.626;18.866;2022-09-03T06:25:46;100612.34;;;17.28;76.80
58072;BME280;60383;46.626;18.866;2022-09-03T06:28:11;100605.47;;;16.50;77.90
58072;BME280;60383;46.626;18.866;2022-09-03T06:30:37;100611.75;;;16.44;78.13
58072;BME280;60383;46.626;18.866;2022-09-03T06:33:02;100610.66;;;16.75;76.81
58072;BME280;60383;46.626;18.866;2022-09-03T06:35:28;100609.28;;;16.86;76.32
58072;BME280;60383;46.626;18.866;2022-09-03T06:37:53;100614.00;;;16.70;77.24
58072;BME280;60383;46.626;18.866;2022-09-03T06:40:18;100610.00;;;16.58;77.03
58072;BME280;60383;46.626;18.866;2022-09-03T06:42:55;100608.25;;;16.87;75.95
58072;BME280;60383;46.626;18.866;2022-09-03T06:45:23;100602.94;;;17.22;75.54
58072;BME280;60383;46.626;18.866;2022-09-03T06:47:48;100599.63;;;17.33;75.34
58072;BME280;60383;46.626;18.866;2022-09-03T06:50:14;100598.91;;;17.75;73.79
58072;BME280;60383;46.626;18.866;2022-09-03T06:52:39;100603.09;;;17.92;72.54
58072;BME280;60383;46.626;18.866;2022-09-03T06:55:05;100605.81;;;18.07;72.10
58072;BME280;60383;46.626;18.866;2022-09-03T06:57:31;100606.28;;;17.89;73.46
58072;BME280;60383;46.626;18.866;2022-09-03T06:59:56;100605.16;;;18.05;73.11
58072;BME280;60383;46.626;18.866;2022-09-03T07:02:21;100608.09;;;18.32;71.41
58072;BME280;60383;46.626;18.866;2022-09-03T07:04:47;100599.22;;;18.50;70.17
58072;BME280;60383;46.626;18.866;2022-09-03T07:07:14;100608.25;;;18.65;70.28
58072;BME280;60383;46.626;18.866;2022-09-03T07:09:40;100607.72;;;18.90;69.87
58072;BME280;60383;46.626;18.866;2022-09-03T07:12:06;100596.88;;;18.95;70.98
58072;BME280;60383;46.626;18.866;2022-09-03T07:14:31;100600.06;;;18.99;70.34
58072;BME280;60383;46.626;18.866;2022-09-03T07:16:57;100610.97;;;18.52;70.82
58072;BME280;60383;46.626;18.866;2022-09-03T07:19:23;100615.19;;;18.90;70.18
58072;BME280;60383;46.626;18.866;2022-09-03T07:21:48;100619.97;;;19.16;69.58
58072;BME280;60383;46.626;18.866;2022-09-03T07:24:13;100624.91;;;19.21;68.61
58072;BME280;60383;46.626;18.866;2022-09-03T07:26:40;100622.94;;;19.01;69.29
58072;BME280;60383;46.626;18.866;2022-09-03T07:29:08;100618.75;;;19.32;68.37
58072;BME280;60383;46.626;18.866;2022-09-03T07:31:40;100625.81;;;19.41;67.45
58072;BME280;60383;46.626;18.866;2022-09-03T07:34:08;100619.41;;;19.41;67.77
58072;BME280;60383;46.626;18.866;2022-09-03T07:36:40;100626.84;;;19.27;67.29
58072;BME280;60383;46.626;18.866;2022-09-03T07:39:11;100615.19;;;18.90;66.64
58072;BME280;60383;46.626;18.866;2022-09-03T07:41:37;100630.69;;;19.26;66.82
58072;BME280;60383;46.626;18.866;2022-09-03T07:44:03;100624.53;;;19.44;64.88
58072;BME280;60383;46.626;18.866;2022-09-03T07:46:34;100625.59;;;19.36;64.65
58072;BME280;60383;46.626;18.866;2022-09-03T07:49:00;100625.81;;;19.68;64.11
58072;BME280;60383;46.626;18.866;2022-09-03T07:51:28;100622.22;;;19.88;63.25
58072;BME280;60383;46.626;18.866;2022-09-03T07:53:57;100619.88;;;19.91;63.74
58072;BME280;60383;46.626;18.866;2022-09-03T07:56:24;100617.09;;;19.98;65.45
58072;BME280;60383;46.626;18.866;2022-09-03T07:58:51;100625.00;;;20.15;64.16
58072;BME280;60383;46.626;18.866;2022-09-03T08:01:19;100614.53;;;20.10;64.96
58072;BME280;60383;46.626;18.866;2022-09-03T08:03:47;100621.56;;;19.72;64.78
58072;BME280;60383;46.626;18.866;2022-09-03T08:06:15;100616.63;;;20.28;63.42
58072;BME280;60383;46.626;18.866;2022-09-03T08:08:42;100622.84;;;20.17;63.59
58072;BME280;60383;46.626;18.866;2022-09-03T08:11:12;100621.78;;;20.18;64.38
58072;BME280;60383;46.626;18.866;2022-09-03T08:13:39;100621.00;;;20.76;65.05
58072;BME280;60383;46.626;18.866;2022-09-03T08:16:06;100620.34;;;20.74;61.96
58072;BME280;60383;46.626;18.866;2022-09-03T08:18:33;100625.25;;;20.79;62.20
58072;BME280;60383;46.626;18.866;2022-09-03T08:21:06;100618.66;;;20.66;59.73
58072;BME280;60383;46.626;18.866;2022-09-03T08:23:41;100618.06;;;21.10;60.94
58072;BME280;60383;46.626;18.866;2022-09-03T08:26:08;100624.28;;;21.44;59.56
58072;BME280;60383;46.626;18.866;2022-09-03T08:28:35;100626.69;;;21.33;61.32
58072;BME280;60383;46.626;18.866;2022-09-03T08:31:09;100628.41;;;21.66;57.71
58072;BME280;60383;46.626;18.866;2022-09-03T08:33:39;100624.44;;;21.49;57.80
58072;BME280;60383;46.626;18.866;2022-09-03T08:36:13;100626.13;;;21.18;58.15
58072;BME280;60383;46.626;18.866;2022-09-03T08:38:40;100621.66;;;21.17;58.83
58072;BME280;60383;46.626;18.866;2022-09-03T08:41:27;100625.53;;;21.48;55.27
58072;BME280;60383;46.626;18.866;2022-09-03T08:55:35;100625.03;;;21.64;53.12
58072;BME280;60383;46.626;18.866;2022-09-03T08:58:17;100615.69;;;21.13;56.81
58072;BME280;60383;46.626;18.866;2022-09-03T09:03:41;100606.69;;;22.00;53.77
58072;BME280;60383;46.626;18.866;2022-09-03T09:17:04;100608.13;;;23.03;50.07
58072;BME280;60383;46.626;18.866;2022-09-03T09:22:17;100601.59;;;23.09;47.80
58072;BME280;60383;46.626;18.866;2022-09-03T09:24:49;100600.09;;;23.25;47.24
58072;BME280;60383;46.626;18.866;2022-09-03T09:27:17;100603.31;;;23.52;48.21
58072;BME280;60383;46.626;18.866;2022-09-03T09:29:47;100600.22;;;23.30;48.68
58072;BME280;60383;46.626;18.866;2022-09-03T09:32:15;100603.84;;;23.61;47.04
58072;BME280;60383;46.626;18.866;2022-09-03T09:34:42;100604.84;;;23.90;46.29
58072;BME280;60383;46.626;18.866;2022-09-03T09:37:10;100606.66;;;23.85;46.26
58072;BME280;60383;46.626;18.866;2022-09-03T09:39:38;100601.13;;;24.08;44.89
58072;BME280;60383;46.626;18.866;2022-09-03T09:42:07;100600.47;;;24.30;44.32
58072;BME280;60383;46.626;18.866;2022-09-03T09:44:34;100604.97;;;24.43;44.01
58072;BME280;60383;46.626;18.866;2022-09-03T09:47:30;100595.41;;;24.92;44.33
58072;BME280;60383;46.626;18.866;2022-09-03T09:50:01;100589.72;;;25.15;42.85
58072;BME280;60383;46.626;18.866;2022-09-03T09:52:28;100606.75;;;24.85;44.44
58072;BME280;60383;46.626;18.866;2022-09-03T09:55:10;100598.00;;;25.10;43.94
58072;BME280;60383;46.626;18.866;2022-09-03T09:57:38;100591.66;;;25.15;42.60
58072;BME280;60383;46.626;18.866;2022-09-03T10:00:13;100594.50;;;25.03;43.00
58072;BME280;60383;46.626;18.866;2022-09-03T10:02:47;100594.78;;;24.90;43.98
58072;BME280;60383;46.626;18.866;2022-09-03T10:05:31;100592.50;;;25.15;42.85
58072;BME280;60383;46.626;18.866;2022-09-03T10:08:05;100586.41;;;25.35;42.05
58072;BME280;60383;46.626;18.866;2022-09-03T10:10:34;100595.13;;;24.52;41.95
58072;BME280;60383;46.626;18.866;2022-09-03T10:13:09;100588.44;;;25.23;41.72
58072;BME280;60383;46.626;18.866;2022-09-03T10:15:48;100589.94;;;25.43;40.63
58072;BME280;60383;46.626;18.866;2022-09-03T10:26:22;100593.91;;;25.01;40.72
58072;BME280;60383;46.626;18.866;2022-09-03T10:28:58;100592.25;;;25.17;40.33
58072;BME280;60383;46.626;18.866;2022-09-03T10:31:31;100592.56;;;25.32;41.13
58072;BME280;60383;46.626;18.866;2022-09-03T10:39:27;100584.63;;;25.29;40.56
58072;BME280;60383;46.626;18.866;2022-09-03T10:42:19;100590.28;;;25.46;39.78
58072;BME280;60383;46.626;18.866;2022-09-03T10:44:55;100579.84;;;25.76;39.02
58072;BME280;60383;46.626;18.866;2022-09-03T10:50:12;100576.22;;;25.75;39.75
58072;BME280;60383;46.626;18.866;2022-09-03T11:00:14;100580.72;;;26.10;39.50
58072;BME280;60383;46.626;18.866;2022-09-03T11:04:02;100582.56;;;25.88;39.62
58072;BME280;60383;46.626;18.866;2022-09-03T11:06:01;100574.91;;;25.83;40.07
58072;BME280;60383;46.626;18.866;2022-09-03T11:08:35;100583.19;;;25.90;38.95
58072;BME280;60383;46.626;18.866;2022-09-03T11:11:19;100582.72;;;25.47;39.11
58072;BME280;60383;46.626;18.866;2022-09-03T11:13:54;100579.28;;;25.91;38.82
58072;BME280;60383;46.626;18.866;2022-09-03T11:16:33;100574.50;;;25.91;39.24
58072;BME280;60383;46.626;18.866;2022-09-03T11:19:06;100575.44;;;26.14;38.17
58072;BME280;60383;46.626;18.866;2022-09-03T11:21:36;100570.94;;;25.96;39.61
58072;BME280;60383;46.626;18.866;2022-09-03T11:26:32;100581.47;;;25.89;38.25
58072;BME280;60383;46.626;18.866;2022-09-03T11:29:30;100568.91;;;25.74;39.11
58072;BME280;60383;46.626;18.866;2022-09-03T11:32:03;100562.59;;;25.84;37.22
58072;BME280;60383;46.626;18.866;2022-09-03T11:34:45;100569.56;;;25.81;38.51
58072;BME280;60383;46.626;18.866;2022-09-03T11:37:21;100564.91;;;25.70;38.17
58072;BME280;60383;46.626;18.866;2022-09-03T11:40:05;100566.25;;;26.02;37.55
58072;BME280;60383;46.626;18.866;2022-09-03T11:42:38;100569.38;;;25.88;37.55
58072;BME280;60383;46.626;18.866;2022-09-03T11:47:44;100565.75;;;25.88;38.28
58072;BME280;60383;46.626;18.866;2022-09-03T11:50:25;100564.34;;;26.24;37.19
58072;BME280;60383;46.626;18.866;2022-09-03T11:55:43;100561.16;;;25.47;37.89
58072;BME280;60383;46.626;18.866;2022-09-03T11:58:56;100556.97;;;26.01;37.54
58072;BME280;60383;46.626;18.866;2022-09-03T12:01:15;100556.56;;;26.09;36.88
58072;BME280;60383;46.626;18.866;2022-09-03T12:03:48;100555.94;;;26.24;38.01
58072;BME280;60383;46.626;18.866;2022-09-03T12:09:17;100562.53;;;25.16;40.25
58072;BME280;60383;46.626;18.866;2022-09-03T12:12:08;100557.72;;;25.96;39.17
58072;BME280;60383;46.626;18.866;2022-09-03T12:15:08;100563.94;;;26.15;38.62
58072;BME280;60383;46.626;18.866;2022-09-03T12:17:58;100563.34;;;26.13;34.36
58072;BME280;60383;46.626;18.866;2022-09-03T12:26:05;100566.00;;;25.86;36.53
58072;BME280;60383;46.626;18.866;2022-09-03T12:28:35;100558.34;;;26.15;36.30
58072;BME280;60383;46.626;18.866;2022-09-03T12:31:17;100560.53;;;26.13;37.94
58072;BME280;60383;46.626;18.866;2022-09-03T12:33:48;100555.78;;;26.14;36.54
58072;BME280;60383;46.626;18.866;2022-09-03T12:36:15;100558.63;;;25.80;36.94
58072;BME280;60383;46.626;18.866;2022-09-03T12:38:41;100545.41;;;25.97;37.21
58072;BME280;60383;46.626;18.866;2022-09-03T12:41:19;100551.88;;;25.98;37.46
58072;BME280;60383;46.626;18.866;2022-09-03T12:43:50;100544.75;;;26.07;37.64
58072;BME280;60383;46.626;18.866;2022-09-03T12:46:30;100544.75;;;26.07;37.53
58072;BME280;60383;46.626;18.866;2022-09-03T12:49:05;100542.69;;;25.34;38.70
58072;BME280;60383;46.626;18.866;2022-09-03T12:51:40;100550.75;;;25.99;37.47
58072;BME280;60383;46.626;18.866;2022-09-03T12:54:09;100540.19;;;26.06;36.41
58072;BME280;60383;46.626;18.866;2022-09-03T12:56:41;100532.34;;;25.86;37.97
58072;BME280;60383;46.626;18.866;2022-09-03T12:59:12;100537.69;;;25.88;37.29
58072;BME280;60383;46.626;18.866;2022-09-03T13:01:48;100536.66;;;26.11;35.18
58072;BME280;60383;46.626;18.866;2022-09-03T13:04:19;100527.88;;;26.24;35.28
58072;BME280;60383;46.626;18.866;2022-09-03T13:07:03;100528.53;;;25.58;36.34
58072;BME280;60383;46.626;18.866;2022-09-03T13:09:34;100525.16;;;25.95;37.96
58072;BME280;60383;46.626;18.866;2022-09-03T13:12:00;100519.53;;;25.39;39.26
58072;BME280;60383;46.626;18.866;2022-09-03T13:14:44;100520.28;;;25.51;37.09
58072;BME280;60383;46.626;18.866;2022-09-03T13:20:22;100512.22;;;25.72;36.05
58072;BME280;60383;46.626;18.866;2022-09-03T13:33:51;100514.88;;;25.62;36.45
58072;BME280;60383;46.626;18.866;2022-09-03T13:36:27;100505.50;;;25.56;35.92
58072;BME280;60383;46.626;18.866;2022-09-03T13:38:59;100508.53;;;25.20;36.89
58072;BME280;60383;46.626;18.866;2022-09-03T13:41:41;100502.44;;;24.78;37.10
58072;BME280;60383;46.626;18.866;2022-09-03T13:49:31;100496.44;;;24.45;37.40
58072;BME280;60383;46.626;18.866;2022-09-03T13:52:29;100495.28;;;24.70;38.42
58072;BME280;60383;46.626;18.866;2022-09-03T13:55:00;100493.75;;;25.08;37.96
58072;BME280;60383;46.626;18.866;2022-09-03T13:57:48;100487.81;;;25.04;37.89
58072;BME280;60383;46.626;18.866;2022-09-03T14:03:11;100489.91;;;24.97;39.56
58072;BME280;60383;46.626;18.866;2022-09-03T14:05:49;100482.38;;;25.15;35.09
58072;BME280;60383;46.626;18.866;2022-09-03T14:08:24;100488.84;;;25.15;35.49
58072;BME280;60383;46.626;18.866;2022-09-03T14:14:00;100485.53;;;25.18;35.21
58072;BME280;60383;46.626;18.866;2022-09-03T14:19:54;100486.28;;;25.14;35.49
58072;BME280;60383;46.626;18.866;2022-09-03T14:22:21;100484.75;;;25.23;35.49
58072;BME280;60383;46.626;18.866;2022-09-03T14:25:19;100483.59;;;25.36;36.10
58072;BME280;60383;46.626;18.866;2022-09-03T14:27:44;100483.84;;;24.60;36.61
58072;BME280;60383;46.626;18.866;2022-09-03T14:35:35;100485.19;;;24.28;40.48
58072;BME280;60383;46.626;18.866;2022-09-03T14:41:21;100475.75;;;24.75;36.62
58072;BME280;60383;46.626;18.866;2022-09-03T14:46:45;100465.91;;;24.72;36.33
58072;BME280;60383;46.626;18.866;2022-09-03T14:49:20;100466.44;;;24.58;38.99
58072;BME280;60383;46.626;18.866;2022-09-03T15:00:17;100476.44;;;24.24;40.85
58072;BME280;60383;46.626;18.866;2022-09-03T15:11:14;100479.47;;;24.93;37.79
58072;BME280;60383;46.626;18.866;2022-09-03T15:13:51;100471.91;;;24.64;38.43
58072;BME280;60383;46.626;18.866;2022-09-03T15:16:32;100467.97;;;24.77;37.96
58072;BME280;60383;46.626;18.866;2022-09-03T15:22:25;100463.38;;;24.71;36.75
58072;BME280;60383;46.626;18.866;2022-09-03T15:30:18;100472.41;;;24.20;39.41
58072;BME280;60383;46.626;18.866;2022-09-03T15:41:01;100462.97;;;23.86;42.07
58072;BME280;60383;46.626;18.866;2022-09-03T15:43:32;100473.78;;;23.82;42.03
58072;BME280;60383;46.626;18.866;2022-09-03T15:52:20;100467.13;;;23.48;44.76
58072;BME280;60383;46.626;18.866;2022-09-03T15:57:44;100467.47;;;23.51;43.61
58072;BME280;60383;46.626;18.866;2022-09-03T16:00:16;100463.09;;;23.20;44.43
58072;BME280;60383;46.626;18.866;2022-09-03T16:02:54;100462.31;;;23.12;46.04
58072;BME280;60383;46.626;18.866;2022-09-03T16:05:36;100470.09;;;23.10;45.36
58072;BME280;60383;46.626;18.866;2022-09-03T16:08:18;100468.50;;;23.03;44.48
58072;BME280;60383;46.626;18.866;2022-09-03T16:13:37;100460.31;;;23.20;43.33
58072;BME280;60383;46.626;18.866;2022-09-03T16:16:07;100465.78;;;22.96;44.57
58072;BME280;60383;46.626;18.866;2022-09-03T16:19:08;100469.38;;;23.15;45.50
58072;BME280;60383;46.626;18.866;2022-09-03T16:24:20;100470.88;;;22.87;45.44
58072;BME280;60383;46.626;18.866;2022-09-03T16:35:49;100482.31;;;22.67;46.63
58072;BME280;60383;46.626;18.866;2022-09-03T16:44:22;100477.84;;;22.66;46.77
58072;BME280;60383;46.626;18.866;2022-09-03T16:49:53;100489.41;;;22.51;47.95
58072;BME280;60383;46.626;18.866;2022-09-03T16:52:32;100484.84;;;22.38;49.49
58072;BME280;60383;46.626;18.866;2022-09-03T17:20:28;100499.19;;;22.05;53.77
58072;BME280;60383;46.626;18.866;2022-09-03T17:25:51;100513.69;;;21.95;54.95